Time;durP1;ratioP1;P1;durP2;ratioP2;P2;SDS_P1;SDS_P2;PMS_P1;PMS_P2;Temp;Humidity;BMP_temperature;BMP_pressure;BME280_temperature;BME280_humidity;BME280_pressure;Samples;Min_cycle;Max_cycle;Signal;HPM_P1;HPM_P2
2021/11/20 00:00:04;;;;;;;15.75;9.60;;;;;;;7.77;62.95;100589.56;5030615;28;20037;-21
2021/11/20 00:02:30;;;;;;;16.23;9.65;;;;;;;7.75;62.97;100557.06;5047302;28;20432;-22
2021/11/20 00:04:56;;;;;;;16.52;9.98;;;;;;;7.95;62.81;100573.22;5030744;28;20558;-22
2021/11/20 00:07:21;;;;;;;18.27;10.90;;;;;;;8.13;62.29;100588.69;5048307;28;20067;-22
2021/11/20 00:09:47;;;;;;;16.77;9.60;;;;;;;8.25;61.83;100595.13;5048211;28;20513;-22
2021/11/20 00:12:22;;;;;;;18.38;11.27;;;;;;;8.14;62.42;100593.00;5030163;28;20830;-22
2021/11/20 00:14:47;;;;;;;19.83;10.70;;;;;;;8.08;62.50;100594.56;5048437;28;20057;-22
2021/11/20 00:17:14;;;;;;;19.88;10.60;;;;;;;7.98;62.60;100600.19;5048262;28;20118;-22
2021/11/20 00:19:39;;;;;;;22.00;12.32;;;;;;;8.12;61.96;100589.72;5048260;28;20040;-22
2021/11/20 00:22:09;;;;;;;20.55;11.45;;;;;;;7.98;62.08;100588.75;5048217;28;20052;-21
2021/11/20 00:24:43;;;;;;;22.50;12.70;;;;;;;7.84;62.30;100582.47;5048678;28;20040;-22
2021/11/20 00:27:11;;;;;;;18.88;11.60;;;;;;;7.79;62.34;100571.63;5048209;28;20090;-22
2021/11/20 00:29:58;;;;;;;20.55;10.98;;;;;;;7.79;62.58;100584.88;5048302;28;20502;-22
2021/11/20 00:32:27;;;;;;;16.83;10.38;;;;;;;7.55;62.81;100578.88;5048074;28;20051;-23
2021/11/20 00:34:52;;;;;;;18.35;10.68;;;;;;;7.50;63.45;100586.59;5014948;28;20091;-21
2021/11/20 00:37:18;;;;;;;17.10;10.63;;;;;;;7.01;64.76;100556.19;5048372;28;20029;-22
2021/11/20 00:39:44;;;;;;;17.90;9.38;;;;;;;7.62;63.50;100584.25;5047918;28;20055;-23
2021/11/20 00:42:10;;;;;;;19.88;10.40;;;;;;;7.46;64.02;100569.41;5048044;28;20035;-22
2021/11/20 00:44:36;;;;;;;16.05;9.35;;;;;;;7.49;64.17;100578.81;5048283;28;20060;-22
2021/11/20 00:47:01;;;;;;;15.48;9.02;;;;;;;7.65;63.46;100574.09;5030424;28;20224;-21
2021/11/20 00:49:27;;;;;;;15.98;9.35;;;;;;;7.49;63.85;100563.72;5048130;28;20071;-21
2021/11/20 00:51:52;;;;;;;15.90;8.45;;;;;;;7.34;64.11;100554.97;5047717;28;20120;-22
2021/11/20 00:54:18;;;;;;;16.48;8.48;;;;;;;7.55;63.58;100560.31;5029916;28;20036;-21
2021/11/20 00:56:43;;;;;;;15.82;8.80;;;;;;;7.67;63.26;100568.63;5048025;28;20098;-22
2021/11/20 00:59:09;;;;;;;14.93;8.00;;;;;;;7.24;64.29;100564.03;5030152;28;20079;-22
2021/11/20 01:01:59;;;;;;;15.20;8.20;;;;;;;7.31;64.60;100565.94;5048105;28;20090;-22
2021/11/20 01:04:25;;;;;;;16.67;8.70;;;;;;;7.66;63.60;100566.97;5046841;28;20041;-22
2021/11/20 01:06:51;;;;;;;14.70;8.88;;;;;;;7.55;63.80;100560.31;5051675;28;20053;-21
2021/11/20 01:09:19;;;;;;;17.05;9.73;;;;;;;7.50;63.67;100554.75;5052053;28;20059;-22
2021/11/20 01:11:48;;;;;;;14.90;8.82;;;;;;;7.40;64.36;100543.63;5051849;28;20101;-22
2021/11/20 01:14:14;;;;;;;15.32;8.95;;;;;;;7.75;62.82;100551.75;5051641;28;20500;-22
2021/11/20 01:16:40;;;;;;;14.75;8.75;;;;;;;7.17;64.30;100539.25;5051661;28;20025;-21
2021/11/20 01:19:05;;;;;;;14.80;8.27;;;;;;;7.02;65.19;100535.78;5051763;28;20056;-22
2021/11/20 01:21:31;;;;;;;14.45;9.10;;;;;;;6.97;65.35;100520.44;5052047;28;20489;-22
2021/11/20 01:23:57;;;;;;;16.02;9.73;;;;;;;7.28;64.23;100535.31;5033746;28;20028;-22
2021/11/20 01:26:22;;;;;;;15.93;8.85;;;;;;;6.99;65.12;100530.88;5050733;28;20389;-23
2021/11/20 01:28:50;;;;;;;16.75;9.50;;;;;;;7.01;64.74;100523.53;5033663;28;20031;-22
2021/11/20 01:31:18;;;;;;;17.40;9.10;;;;;;;7.04;64.93;100523.97;5016928;28;20028;-22
2021/11/20 01:33:44;;;;;;;17.10;10.32;;;;;;;7.31;64.21;100523.50;5033578;28;20072;-22
2021/11/20 01:36:11;;;;;;;18.42;10.25;;;;;;;7.13;64.21;100526.53;5033310;28;20115;-22
2021/11/20 01:38:36;;;;;;;13.93;8.27;;;;;;;6.99;64.49;100525.56;5051014;28;20497;-22
2021/11/20 01:41:02;;;;;;;15.35;9.38;;;;;;;6.52;66.62;100529.34;5051359;28;20035;-21
2021/11/20 01:43:28;;;;;;;15.30;9.25;;;;;;;6.00;67.88;100520.38;5033247;28;20032;-21
2021/11/20 01:45:59;;;;;;;13.52;8.13;;;;;;;5.34;70.35;100522.63;5050941;28;20033;-22
2021/11/20 01:49:22;;;;;;;17.17;9.20;;;;;;;4.96;70.73;100520.59;5032930;28;20103;-22
2021/11/20 01:52:00;;;;;;;15.63;9.32;;;;;;;5.54;68.97;100510.59;4969825;28;20122;-22
2021/11/20 01:54:29;;;;;;;;;;;;;;;5.64;68.83;100515.66;4953944;28;20039;-23
2021/11/20 01:57:15;;;;;;;16.85;9.75;;;;;;;5.69;68.59;100504.53;5015387;28;19960;-22
2021/11/20 01:59:59;;;;;;;17.75;10.07;;;;;;;6.14;67.52;100516.97;5051094;28;20048;-22
2021/11/20 02:03:06;;;;;;;17.45;9.80;;;;;;;6.40;66.47;100516.56;5050584;28;20029;-22
2021/11/20 02:05:38;;;;;;;19.20;10.60;;;;;;;6.51;65.41;100511.81;5039853;28;20041;-21
2021/11/20 02:08:10;;;;;;;18.58;10.65;;;;;;;6.42;65.67;100508.44;5050775;28;20033;-22
2021/11/20 02:10:48;;;;;;;18.83;10.40;;;;;;;6.35;66.11;100499.56;5033022;28;20582;-21
2021/11/20 02:13:15;;;;;;;;;;;;;;;6.41;65.96;100509.44;5051130;28;20032;-22
2021/11/20 02:15:45;;;;;;;20.20;10.48;;;;;;;6.38;65.69;100502.66;5050315;28;19928;-22
2021/11/20 02:18:11;;;;;;;19.85;10.15;;;;;;;5.91;66.22;100489.66;5049586;28;20035;-21
2021/11/20 02:20:51;;;;;;;17.93;9.97;;;;;;;6.16;66.46;100483.19;5032678;28;20519;-22
2021/11/20 02:23:17;;;;;;;17.42;9.93;;;;;;;6.33;65.69;100504.22;5016509;28;20563;-22
2021/11/20 02:25:42;;;;;;;19.25;9.35;;;;;;;5.60;68.54;100499.31;5050420;28;20029;-22
2021/11/20 02:28:08;;;;;;;16.73;10.15;;;;;;;5.65;68.05;100485.53;5050226;28;20537;-22
2021/11/20 02:30:41;;;;;;;17.27;9.80;;;;;;;6.04;66.86;100480.13;5050210;28;20037;-22
2021/11/20 02:33:16;;;;;;;19.58;9.98;;;;;;;5.89;67.17;100508.38;5050565;28;20111;-22
2021/11/20 02:35:50;;;;;;;18.52;11.20;;;;;;;5.98;67.08;100499.38;5050347;28;20021;-22
2021/11/20 02:38:19;;;;;;;16.15;10.25;;;;;;;5.81;67.10;100489.91;5032086;28;20150;-21
2021/11/20 02:40:44;;;;;;;24.17;13.73;;;;;;;5.73;67.44;100488.13;5032534;28;20036;-22
2021/11/20 02:43:10;;;;;;;18.33;11.63;;;;;;;5.92;67.21;100478.88;5050129;28;20471;-22
2021/11/20 02:45:40;;;;;;;17.80;10.70;;;;;;;5.81;67.62;100480.13;5032069;28;20090;-23
2021/11/20 02:48:06;;;;;;;18.00;9.55;;;;;;;5.96;67.60;100472.25;5015859;28;20033;-22
2021/11/20 02:50:37;;;;;;;19.33;10.02;;;;;;;6.04;67.39;100471.38;5049856;28;20036;-22
2021/11/20 02:53:03;;;;;;;18.42;9.77;;;;;;;5.98;66.40;100470.25;5049943;28;20493;-22
2021/11/20 02:55:28;;;;;;;16.83;9.35;;;;;;;5.92;66.93;100470.13;5050050;28;20060;-22
2021/11/20 02:57:54;;;;;;;17.88;8.82;;;;;;;5.72;68.63;100465.34;5032108;28;20477;-22
2021/11/20 03:00:19;;;;;;;14.32;9.20;;;;;;;5.86;68.41;100469.00;5049493;28;20439;-22
2021/11/20 03:02:45;;;;;;;16.10;8.95;;;;;;;6.14;67.23;100474.59;5049703;28;20108;-21
2021/11/20 03:05:10;;;;;;;18.13;8.73;;;;;;;6.00;68.01;100468.25;5050175;28;20036;-22
2021/11/20 03:07:36;;;;;;;14.48;9.25;;;;;;;5.98;67.75;100448.25;5031525;28;20028;-21
2021/11/20 03:10:03;;;;;;;13.85;8.82;;;;;;;5.96;68.10;100466.97;5031807;28;20401;-22
2021/11/20 03:12:29;;;;;;;16.77;10.35;;;;;;;5.88;69.34;100474.13;5049253;28;20040;-22
2021/11/20 03:14:55;;;;;;;18.48;10.05;;;;;;;6.00;69.35;100462.97;5049389;28;20056;-22
2021/11/20 03:17:20;;;;;;;17.55;10.23;;;;;;;5.89;69.83;100466.00;5049571;28;20488;-21
2021/11/20 03:19:47;;;;;;;18.30;9.07;;;;;;;6.10;69.63;100472.50;5049577;28;20044;-22
2021/11/20 03:22:23;;;;;;;25.60;11.75;;;;;;;6.07;69.23;100447.19;5031186;28;20025;-22
2021/11/20 03:24:49;;;;;;;18.67;10.43;;;;;;;6.43;68.45;100467.69;5049425;28;20108;-22
2021/11/20 03:27:15;;;;;;;17.50;10.50;;;;;;;6.51;68.15;100466.78;5049086;28;20413;-22
2021/11/20 03:29:40;;;;;;;19.55;10.48;;;;;;;6.67;67.94;100479.84;5048992;28;20032;-22
2021/11/20 03:32:06;;;;;;;17.75;10.48;;;;;;;6.73;67.85;100468.50;5049226;28;20404;-22
2021/11/20 03:34:32;;;;;;;16.63;10.60;;;;;;;6.91;66.95;100464.69;5048944;28;20137;-22
2021/11/20 03:36:58;;;;;;;17.45;10.60;;;;;;;6.83;67.46;100469.06;5031271;28;20051;-22
2021/11/20 03:39:24;;;;;;;17.75;10.40;;;;;;;7.00;66.69;100479.47;5048998;28;20417;-22
2021/11/20 03:41:49;;;;;;;19.05;11.18;;;;;;;6.97;66.47;100479.84;5048788;28;20033;-22
2021/11/20 03:44:15;;;;;;;17.38;10.57;;;;;;;6.93;66.75;100473.25;5048647;28;20064;-22
2021/11/20 03:46:40;;;;;;;18.33;10.88;;;;;;;6.53;67.93;100467.41;5048707;28;20033;-22
2021/11/20 03:49:06;;;;;;;19.50;11.05;;;;;;;6.38;67.96;100457.63;5048728;28;20559;-22
2021/11/20 03:51:31;;;;;;;21.45;11.15;;;;;;;6.53;68.68;100470.06;5048885;28;20036;-22
2021/11/20 03:53:57;;;;;;;18.55;10.43;;;;;;;6.53;67.68;100460.28;5048809;28;20090;-22
2021/11/20 03:56:22;;;;;;;17.50;10.95;;;;;;;6.62;67.25;100461.03;5030939;28;20321;-22
2021/11/20 03:58:48;;;;;;;19.30;11.73;;;;;;;6.62;67.41;100472.47;5014354;28;20028;-21
2021/11/20 04:01:16;;;;;;;21.55;12.30;;;;;;;5.97;68.98;100473.91;5048909;28;20037;-21
2021/11/20 04:03:42;;;;;;;28.23;17.35;;;;;;;5.91;70.03;100476.44;5048484;28;20032;-22
2021/11/20 04:06:12;;;;;;;27.02;16.80;;;;;;;6.00;69.59;100462.97;5048719;28;20044;-22
2021/11/20 04:08:39;;;;;;;25.70;16.58;;;;;;;6.16;69.13;100472.59;5031566;28;20031;-22
2021/11/20 04:11:04;;;;;;;25.83;16.35;;;;;;;6.14;68.80;100469.28;5030737;28;20753;-23
2021/11/20 04:13:30;;;;;;;26.15;15.43;;;;;;;6.13;68.59;100464.16;5048257;28;20548;-22
2021/11/20 04:15:55;;;;;;;24.73;16.08;;;;;;;5.86;70.33;100470.84;5030524;28;20447;-22
2021/11/20 04:18:22;;;;;;;25.10;14.98;;;;;;;6.09;69.68;100486.72;5048132;28;20044;-22
2021/11/20 04:20:47;;;;;;;24.50;13.30;;;;;;;6.13;69.54;100470.31;5048317;28;20028;-21
2021/11/20 04:23:13;;;;;;;23.75;15.68;;;;;;;6.04;70.20;100474.03;5048241;28;20037;-22
2021/11/20 04:25:39;;;;;;;25.80;14.48;;;;;;;5.88;70.54;100474.94;5046931;28;20118;-21
2021/11/20 04:28:04;;;;;;;22.42;13.75;;;;;;;5.77;71.12;100476.19;5028671;28;20094;-22
2021/11/20 04:30:30;;;;;;;26.00;13.45;;;;;;;5.70;71.28;100474.41;5048170;28;20075;-22
2021/11/20 04:32:55;;;;;;;26.13;14.75;;;;;;;5.69;72.08;100486.03;5047899;28;20028;-22
2021/11/20 04:35:22;;;;;;;26.15;14.77;;;;;;;6.08;70.69;100482.44;5030208;28;20087;-22
2021/11/20 04:37:48;;;;;;;37.70;19.02;;;;;;;6.31;70.00;100469.94;5047971;28;20459;-22
2021/11/20 04:40:14;;;;;;;21.63;12.95;;;;;;;6.44;69.60;100496.66;5047292;28;20535;-22
2021/11/20 04:42:40;;;;;;;28.80;15.30;;;;;;;6.34;69.84;100480.19;5047957;28;20038;-21
2021/11/20 04:45:06;;;;;;;23.90;14.20;;;;;;;6.56;68.85;100478.50;5047992;28;20028;-22
2021/11/20 04:47:32;;;;;;;24.25;16.27;;;;;;;6.54;68.67;100493.75;5013524;28;20025;-22
2021/11/20 04:49:57;;;;;;;25.10;15.65;;;;;;;6.32;69.79;100486.69;5048251;28;20025;-21
2021/11/20 04:52:23;;;;;;;34.30;17.92;;;;;;;6.71;69.50;100491.72;5029987;28;20525;-22
2021/11/20 04:54:48;;;;;;;27.15;16.95;;;;;;;6.94;68.63;100496.09;5048100;28;20320;-22
2021/11/20 04:57:13;;;;;;;28.13;17.02;;;;;;;7.05;68.30;100498.31;5047828;28;20044;-21
2021/11/20 04:59:39;;;;;;;35.75;18.25;;;;;;;6.86;68.15;100488.25;5029825;28;20452;-22
2021/11/20 05:02:04;;;;;;;34.95;21.02;;;;;;;6.33;70.81;100483.84;5048233;28;20037;-22
2021/11/20 05:04:31;;;;;;;33.05;19.63;;;;;;;6.41;70.95;100497.00;5047621;28;20048;-21
2021/11/20 05:06:57;;;;;;;32.15;17.48;;;;;;;6.95;69.09;100487.16;5047712;28;20033;-21
2021/11/20 05:09:23;;;;;;;30.10;18.60;;;;;;;6.43;69.83;100504.78;5047823;28;20044;-21
2021/11/20 05:11:49;;;;;;;29.60;17.55;;;;;;;6.58;70.14;100486.25;5047663;28;20040;-22
2021/11/20 05:14:14;;;;;;;30.70;18.42;;;;;;;6.65;69.84;100481.88;5029471;28;20049;-22
2021/11/20 05:16:40;;;;;;;26.25;15.48;;;;;;;6.37;71.27;100485.13;5047540;28;20784;-21
2021/11/20 05:19:06;;;;;;;25.20;16.63;;;;;;;6.42;71.48;100489.91;5048142;28;20098;-22
2021/11/20 05:21:31;;;;;;;25.85;16.60;;;;;;;6.62;71.27;100479.59;5047571;28;20040;-22
2021/11/20 05:23:57;;;;;;;26.15;16.67;;;;;;;6.95;69.99;100503.88;5013452;28;20029;-22
2021/11/20 05:26:22;;;;;;;27.15;16.80;;;;;;;7.18;69.41;100490.50;5047456;28;20531;-21
2021/11/20 05:28:55;;;;;;;26.95;16.17;;;;;;;7.07;70.25;100501.59;5029707;28;20061;-23
2021/11/20 05:31:21;;;;;;;26.35;15.02;;;;;;;7.36;68.96;100494.59;5047516;28;20742;-22
2021/11/20 05:33:49;;;;;;;24.50;15.20;;;;;;;7.43;68.99;100495.47;5047949;28;20056;-22
2021/11/20 05:36:14;;;;;;;30.35;15.52;;;;;;;7.42;69.21;100489.34;5029657;28;20037;-22
2021/11/20 05:38:40;;;;;;;30.25;17.40;;;;;;;7.34;70.02;100507.22;5029879;28;20056;-23
2021/11/20 05:41:06;;;;;;;54.88;32.17;;;;;;;7.47;69.75;100517.97;5029857;28;20128;-22
2021/11/20 05:43:31;;;;;;;62.25;40.85;;;;;;;7.11;71.05;100502.88;5029642;28;20485;-22
2021/11/20 05:46:00;;;;;;;56.90;35.42;;;;;;;7.37;70.83;100506.81;5047348;28;20558;-23
2021/11/20 05:48:26;;;;;;;36.58;23.60;;;;;;;7.57;69.97;100517.66;5047212;28;20154;-22
2021/11/20 05:50:51;;;;;;;37.35;22.85;;;;;;;7.70;69.46;100507.16;5047651;28;20441;-21
2021/11/20 05:53:21;;;;;;;37.72;21.60;;;;;;;7.78;68.87;100499.06;5050262;28;20029;-22
2021/11/20 05:55:47;;;;;;;43.67;22.92;;;;;;;7.93;69.15;100517.63;5050923;28;20094;-22
2021/11/20 05:58:13;;;;;;;35.85;23.50;;;;;;;7.56;71.12;100498.28;5050674;28;20134;-22
2021/11/20 06:00:43;;;;;;;37.22;22.80;;;;;;;7.33;73.49;100511.69;5033070;28;20484;-23
2021/11/20 06:03:09;;;;;;;40.03;23.23;;;;;;;7.73;71.73;100511.31;5050809;28;20061;-22
2021/11/20 06:05:35;;;;;;;37.97;22.98;;;;;;;8.08;70.13;100509.56;5050966;28;20424;-22
2021/11/20 06:08:01;;;;;;;36.60;23.77;;;;;;;8.14;69.94;100497.38;5050436;28;20552;-22
2021/11/20 06:10:27;;;;;;;37.63;24.80;;;;;;;8.13;70.23;100501.03;5050621;28;20037;-22
2021/11/20 06:12:52;;;;;;;38.13;25.95;;;;;;;8.17;69.92;100503.13;5033101;28;20029;-21
2021/11/20 06:15:18;;;;;;;43.67;27.95;;;;;;;7.93;71.11;100507.00;5032706;28;20080;-22
2021/11/20 06:17:43;;;;;;;49.42;31.58;;;;;;;7.78;72.56;100511.53;5050543;28;20033;-22
2021/11/20 06:20:09;;;;;;;54.60;34.90;;;;;;;7.60;73.67;100496.88;5050262;28;20040;-22
2021/11/20 06:22:35;;;;;;;57.45;35.72;;;;;;;7.87;73.03;100513.06;5032716;28;20079;-22
2021/11/20 06:25:01;;;;;;;47.30;32.25;;;;;;;7.81;72.43;100496.06;5050569;28;20493;-22
2021/11/20 06:27:26;;;;;;;53.15;31.42;;;;;;;7.71;73.69;100498.22;5050244;28;20029;-22
2021/11/20 06:29:52;;;;;;;43.80;29.48;;;;;;;7.88;72.73;100488.16;5032467;28;20036;-21
2021/11/20 06:32:17;;;;;;;48.45;30.65;;;;;;;8.14;71.94;100478.78;5050190;28;20033;-22
2021/11/20 06:34:43;;;;;;;57.58;34.08;;;;;;;8.60;69.71;100479.13;5050159;28;20037;-21
2021/11/20 06:37:08;;;;;;;82.60;42.63;;;;;;;8.30;70.86;100483.78;5050095;28;20056;-22
2021/11/20 06:39:35;;;;;;;84.40;45.22;;;;;;;8.32;70.72;100472.97;5050373;28;20067;-22
2021/11/20 06:42:04;;;;;;;85.07;46.05;;;;;;;8.31;70.72;100477.44;5049739;28;20025;-22
2021/11/20 06:44:30;;;;;;;89.53;45.97;;;;;;;8.41;71.20;100469.16;5050012;28;20044;-22
2021/11/20 06:46:55;;;;;;;67.10;39.45;;;;;;;8.53;71.86;100458.81;5032561;28;20033;-21
2021/11/20 06:49:21;;;;;;;49.47;31.63;;;;;;;8.68;71.64;100472.81;5049868;28;20528;-22
2021/11/20 06:51:46;;;;;;;47.88;30.83;;;;;;;8.59;72.25;100456.19;5049625;28;20036;-22
2021/11/20 06:54:12;;;;;;;53.22;28.60;;;;;;;8.71;72.21;100477.75;5049685;28;20036;-22
2021/11/20 06:56:43;;;;;;;34.83;23.23;;;;;;;9.10;71.13;100486.09;5049829;28;20067;-22
2021/11/20 07:01:44;;;;;;;21.90;13.23;;;;;;;9.86;68.39;100485.88;5033396;28;20041;-22
2021/11/20 07:04:13;;;;;;;19.85;13.05;;;;;;;9.97;67.47;100482.63;5048904;28;20052;-21
2021/11/20 07:06:56;;;;;;;20.23;12.30;;;;;;;10.29;66.63;100489.97;5031938;28;20033;-22
2021/11/20 07:09:22;;;;;;;19.92;11.98;;;;;;;10.36;66.56;100483.66;5031723;28;20503;-22
2021/11/20 07:11:47;;;;;;;23.08;12.23;;;;;;;10.40;65.98;100471.53;5031666;28;20037;-22
2021/11/20 07:14:13;;;;;;;18.63;12.27;;;;;;;10.58;66.06;100464.72;5031412;28;20056;-22
2021/11/20 07:16:38;;;;;;;18.58;11.13;;;;;;;10.83;65.32;100455.00;5014687;28;20021;-22
2021/11/20 07:19:04;;;;;;;19.60;11.43;;;;;;;10.88;64.16;100467.72;5049394;28;20110;-23
2021/11/20 07:21:29;;;;;;;18.73;11.98;;;;;;;11.09;63.37;100463.13;5049428;28;20455;-23
2021/11/20 07:23:56;;;;;;;21.05;13.45;;;;;;;11.13;64.41;100464.31;5049451;28;20033;-21
2021/11/20 07:26:22;;;;;;;17.77;13.38;;;;;;;11.37;63.59;100465.44;5049291;28;20395;-22
2021/11/20 07:28:49;;;;;;;23.27;14.27;;;;;;;11.43;63.08;100461.91;5049169;28;20516;-22
2021/11/20 07:31:14;;;;;;;21.15;14.25;;;;;;;11.57;63.19;100471.47;5048976;28;20104;-22
2021/11/20 07:33:40;;;;;;;24.58;15.85;;;;;;;11.70;61.90;100469.75;5031084;28;20040;-22
2021/11/20 07:36:05;;;;;;;50.00;28.73;;;;;;;11.62;61.92;100455.63;5048948;28;20032;-21
2021/11/20 07:38:36;;;;;;;18.40;11.43;;;;;;;11.53;62.30;100467.59;5049026;28;20497;-21
2021/11/20 07:41:02;;;;;;;16.25;11.45;;;;;;;11.63;64.38;100465.28;5031294;28;20039;-22
2021/11/20 07:43:28;;;;;;;15.48;9.90;;;;;;;11.73;62.60;100474.66;5014800;28;20052;-22
2021/11/20 07:45:54;;;;;;;13.35;8.10;;;;;;;11.85;62.92;100470.28;5031078;28;20170;-21
2021/11/20 07:48:24;;;;;;;12.25;7.82;;;;;;;12.01;61.63;100451.06;5048585;28;20033;-23
2021/11/20 07:50:50;;;;;;;11.88;7.50;;;;;;;12.41;61.27;100457.88;5031365;28;20028;-22
2021/11/20 07:53:17;;;;;;;14.45;9.77;;;;;;;12.51;61.06;100444.81;5048845;28;20031;-21
2021/11/20 07:55:43;;;;;;;17.25;10.38;;;;;;;12.72;61.04;100450.75;5048858;28;20029;-22
2021/11/20 07:58:08;;;;;;;14.15;8.18;;;;;;;12.79;60.34;100440.78;5048470;28;20504;-21
2021/11/20 08:00:34;;;;;;;12.02;7.85;;;;;;;12.76;59.96;100446.59;5030758;28;20120;-21
2021/11/20 08:03:00;;;;;;;13.02;7.63;;;;;;;12.64;59.58;100463.38;5049090;28;20144;-22
2021/11/20 08:05:28;;;;;;;10.30;6.93;;;;;;;12.65;60.06;100440.94;5048267;28;20025;-23
2021/11/20 08:07:54;;;;;;;17.67;10.88;;;;;;;12.49;60.77;100446.09;5048444;28;20048;-21
2021/11/20 08:10:20;;;;;;;22.27;12.90;;;;;;;12.34;59.96;100443.75;5030387;28;20037;-22
2021/11/20 08:12:45;;;;;;;18.90;11.25;;;;;;;12.19;60.80;100423.53;5013994;28;20044;-22
2021/11/20 08:15:11;;;;;;;16.90;10.82;;;;;;;12.13;60.90;100426.25;5047310;28;20068;-23
2021/11/20 08:17:36;;;;;;;25.52;14.45;;;;;;;12.19;61.35;100431.53;5048568;28;20045;-21
2021/11/20 08:20:04;;;;;;;17.35;9.77;;;;;;;12.18;61.07;100445.16;5048326;28;20476;-22
2021/11/20 08:22:30;;;;;;;32.80;14.82;;;;;;;11.91;61.37;100442.72;5048205;28;20029;-23
2021/11/20 08:24:55;;;;;;;87.47;35.55;;;;;;;12.20;61.63;100437.72;5048157;28;20424;-23
2021/11/20 08:27:21;;;;;;;91.45;35.45;;;;;;;12.67;60.94;100427.34;5048167;28;20112;-22
2021/11/20 08:29:46;;;;;;;41.75;20.88;;;;;;;12.86;59.91;100441.53;5048287;28;20037;-22
2021/11/20 08:32:12;;;;;;;19.55;9.52;;;;;;;13.00;58.39;100432.28;5048105;28;20032;-23
2021/11/20 08:34:38;;;;;;;33.80;14.77;;;;;;;13.10;58.56;100447.81;5048240;28;20483;-21
2021/11/20 08:37:04;;;;;;;81.35;34.20;;;;;;;13.26;58.46;100425.78;5013994;28;20040;-22
2021/11/20 08:39:30;;;;;;;75.10;34.42;;;;;;;13.19;57.69;100419.69;5048579;28;20040;-21
2021/11/20 08:41:56;;;;;;;58.90;30.25;;;;;;;13.23;58.07;100425.41;5048079;28;20036;-22
2021/11/20 08:44:21;;;;;;;24.80;13.38;;;;;;;13.34;57.23;100405.06;5048579;28;20036;-21
2021/11/20 08:46:47;;;;;;;25.58;13.52;;;;;;;13.38;57.04;100419.66;5047992;28;20060;-21
2021/11/20 08:49:13;;;;;;;26.73;13.93;;;;;;;13.07;57.27;100408.09;5047809;28;20036;-21
2021/11/20 08:51:39;;;;;;;17.73;8.93;;;;;;;13.25;57.46;100421.44;5047975;28;20028;-21
2021/11/20 08:54:04;;;;;;;15.85;9.60;;;;;;;13.44;57.74;100402.66;5030088;28;20127;-22
2021/11/20 08:56:31;;;;;;;23.77;10.93;;;;;;;13.71;57.58;100404.91;5029962;28;20033;-21
2021/11/20 08:58:57;;;;;;;17.15;9.35;;;;;;;14.01;56.33;100416.38;5030143;28;20037;-22
2021/11/20 09:01:28;;;;;;;12.52;7.88;;;;;;;13.98;56.48;100398.06;5047780;28;20029;-21
2021/11/20 09:04:02;;;;;;;20.88;9.52;;;;;;;14.15;55.57;100414.28;5047861;28;20043;-21
2021/11/20 09:06:41;;;;;;;13.80;8.57;;;;;;;14.22;55.16;100406.09;5048073;28;20037;-21
2021/11/20 09:09:15;;;;;;;11.52;6.20;;;;;;;14.33;54.45;100401.78;5047755;28;20029;-22
2021/11/20 09:12:04;;;;;;;11.80;7.38;;;;;;;14.59;54.51;100405.88;5047859;28;20029;-21
2021/11/20 09:14:35;;;;;;;12.48;6.82;;;;;;;14.61;53.57;100395.72;5026268;28;20077;-21
2021/11/20 09:17:01;;;;;;;9.70;6.32;;;;;;;14.71;54.22;100390.56;5027974;28;20144;-22
2021/11/20 09:19:28;;;;;;;12.38;6.57;;;;;;;14.89;52.41;100388.72;5036970;28;20776;-22
2021/11/20 09:21:55;;;;;;;10.60;5.82;;;;;;;14.85;52.67;100381.16;5041775;28;20033;-21
2021/11/20 09:24:21;;;;;;;9.60;6.43;;;;;;;14.96;52.60;100378.66;5047770;28;20048;-22
2021/11/20 09:26:46;;;;;;;11.48;7.03;;;;;;;15.06;51.89;100400.34;5035583;28;20432;-21
2021/11/20 09:29:13;;;;;;;10.02;5.43;;;;;;;15.07;51.69;100391.22;5035045;28;20049;-23
2021/11/20 09:31:42;;;;;;;12.90;7.05;;;;;;;15.22;51.38;100379.94;5040314;28;20032;-21
2021/11/20 09:34:08;;;;;;;10.55;5.13;;;;;;;15.17;51.97;100391.41;5038689;28;20029;-23
2021/11/20 09:36:34;;;;;;;11.55;6.10;;;;;;;15.39;50.91;100379.97;5039261;28;20025;-22
2021/11/20 09:38:59;;;;;;;12.43;7.32;;;;;;;15.66;51.38;100380.94;5040811;28;20042;-22
2021/11/20 09:41:57;;;;;;;8.63;5.32;;;;;;;15.55;50.86;100371.09;5038500;28;20041;-22
2021/11/20 09:44:23;;;;;;;13.77;6.32;;;;;;;15.22;50.87;100375.38;5039013;28;20029;-23
2021/11/20 09:46:49;;;;;;;16.13;9.70;;;;;;;15.39;51.00;100382.66;5015829;28;20124;-21
2021/11/20 09:49:29;;;;;;;13.40;8.77;;;;;;;15.26;51.83;100363.09;5013786;28;20044;-21
2021/11/20 09:51:54;;;;;;;13.13;7.30;;;;;;;15.23;51.44;100346.63;5030052;28;20041;-21
2021/11/20 09:54:27;;;;;;;11.23;7.05;;;;;;;15.41;51.16;100359.84;5030937;28;20116;-21
2021/11/20 09:56:58;;;;;;;10.57;7.28;;;;;;;15.61;50.63;100351.31;5030728;28;20839;-21
2021/11/20 09:59:38;;;;;;;15.20;7.68;;;;;;;15.75;50.26;100342.91;5031065;28;20025;-21
2021/11/20 10:02:17;;;;;;;14.52;8.23;;;;;;;16.22;50.88;100339.78;5030897;28;20481;-22
2021/11/20 10:04:46;;;;;;;15.25;8.00;;;;;;;15.97;49.56;100338.41;5029738;28;20033;-22
2021/11/20 10:07:27;;;;;;;11.45;5.75;;;;;;;15.74;49.23;100335.94;5030885;28;20029;-21
2021/11/20 10:09:55;;;;;;;9.68;6.03;;;;;;;15.99;49.53;100322.81;5029677;28;20075;-21
2021/11/20 10:12:26;;;;;;;9.88;5.47;;;;;;;15.92;49.20;100332.97;5030969;28;20037;-21
2021/11/20 10:15:29;;;;;;;9.05;5.63;;;;;;;16.37;49.30;100331.94;5043336;28;20061;-21
2021/11/20 10:18:03;;;;;;;8.30;5.50;;;;;;;16.36;48.01;100324.91;5047802;28;20049;-21
2021/11/20 10:20:31;;;;;;;10.50;6.18;;;;;;;16.50;48.24;100333.41;5032515;28;20037;-22
2021/11/20 10:23:34;;;;;;;10.00;5.25;;;;;;;16.87;47.92;100322.00;5050533;28;20082;-21
2021/11/20 10:26:12;;;;;;;9.15;4.90;;;;;;;16.91;46.24;100306.94;4983446;28;20075;-22
2021/11/20 10:28:53;;;;;;;8.85;4.80;;;;;;;16.69;46.87;100309.66;5050367;28;20036;-21
2021/11/20 10:31:21;;;;;;;10.13;6.50;;;;;;;17.00;48.07;100312.69;5050298;28;20035;-22
2021/11/20 10:33:59;;;;;;;14.95;9.98;;;;;;;16.92;47.43;100313.16;5050226;28;20075;-21
2021/11/20 10:36:31;;;;;;;26.80;17.25;;;;;;;17.15;47.06;100318.22;5033157;28;20075;-21
2021/11/20 10:39:12;;;;;;;38.88;24.70;;;;;;;16.85;46.93;100302.59;5049552;28;20036;-22
2021/11/20 10:41:42;;;;;;;14.05;8.90;;;;;;;16.99;46.02;100292.22;5032101;28;20037;-22
2021/11/20 10:44:18;;;;;;;11.98;7.47;;;;;;;17.47;45.03;100309.31;5049861;28;20052;-22
2021/11/20 10:47:16;;;;;;;15.45;10.65;;;;;;;17.31;45.75;100305.69;5050066;28;20062;-21
2021/11/20 10:49:44;;;;;;;15.80;9.15;;;;;;;17.24;45.35;100305.91;5042363;28;20413;-22
2021/11/20 10:52:40;;;;;;;25.73;14.63;;;;;;;17.60;45.24;100295.38;5049631;28;20031;-22
2021/11/20 10:55:41;;;;;;;40.25;23.50;;;;;;;17.45;45.63;100292.59;5034590;28;20412;-21
2021/11/20 10:58:10;;;;;;;47.47;26.15;;;;;;;17.59;45.29;100291.06;5031774;28;20041;-23
2021/11/20 11:01:13;;;;;;;28.80;16.40;;;;;;;17.63;45.25;100285.94;5049392;28;20044;-21
2021/11/20 11:03:40;;;;;;;29.60;17.02;;;;;;;17.59;45.30;100280.28;5047963;28;20094;-21
2021/11/20 11:06:36;;;;;;;42.85;24.65;;;;;;;17.72;44.23;100289.78;5049066;28;20125;-22
2021/11/20 11:09:17;;;;;;;32.80;19.65;;;;;;;17.83;45.05;100282.59;5050087;28;20029;-22
2021/11/20 11:11:51;;;;;;;43.80;25.48;;;;;;;17.86;44.62;100282.09;5049732;28;20033;-21
2021/11/20 11:14:28;;;;;;;39.92;22.08;;;;;;;17.90;44.23;100280.50;5049326;28;20056;-21
2021/11/20 11:17:04;;;;;;;35.13;19.83;;;;;;;18.38;43.47;100275.81;5049567;28;20111;-21
2021/11/20 11:19:47;;;;;;;59.25;34.53;;;;;;;18.02;43.71;100264.06;5031622;28;20078;-21
2021/11/20 11:22:30;;;;;;;56.10;30.23;;;;;;;17.89;43.39;100268.06;5049063;28;20021;-21
2021/11/20 11:25:12;;;;;;;38.97;22.08;;;;;;;17.86;43.54;100269.41;5031811;28;20060;-22
2021/11/20 11:28:11;;;;;;;45.33;26.48;;;;;;;18.17;42.85;100253.34;5049217;28;20104;-22